createdAt,value
2022-11-16T00:01:42.591Z,97771.69
2022-11-16T00:04:11.949Z,97770.09
2022-11-16T00:06:39.462Z,97772.72
2022-11-16T00:09:26.329Z,97768.50
2022-11-16T00:11:56.667Z,97773.72
2022-11-16T00:14:24.330Z,97775.72
2022-11-16T00:16:51.617Z,97777.38
2022-11-16T00:19:18.538Z,97780.03
2022-11-16T00:21:45.169Z,97783.44
2022-11-16T00:24:15.321Z,97785.19
2022-11-16T00:26:42.326Z,97782.69
2022-11-16T00:29:26.057Z,97782.75
2022-11-16T00:31:54.160Z,97788.72
2022-11-16T00:34:22.370Z,97791.38
2022-11-16T00:36:49.324Z,97787.91
2022-11-16T00:39:17.272Z,97792.16
2022-11-16T00:41:44.832Z,97794.91
2022-11-16T00:44:11.998Z,97781.06
2022-11-16T00:46:38.974Z,97778.56
2022-11-16T00:49:06.173Z,97787.91
2022-11-16T00:51:34.529Z,97784.34
2022-11-16T00:54:01.763Z,97780.03
2022-11-16T00:56:28.316Z,97780.13
2022-11-16T00:58:54.873Z,97776.69
2022-11-16T01:01:21.550Z,97774.94
2022-11-16T01:03:48.269Z,97771.47
2022-11-16T01:06:16.217Z,97778.38
2022-11-16T01:08:44.690Z,97775.81
2022-11-16T01:11:34.473Z,97770.75
2022-11-16T01:14:05.167Z,97766.44
2022-11-16T01:16:32.240Z,97765.69
2022-11-16T01:18:58.878Z,97762.31
2022-11-16T01:21:25.627Z,97760.75
2022-11-16T01:23:52.535Z,97769.31
2022-11-16T01:26:19.404Z,97758.25
2022-11-16T01:28:46.140Z,97760.88
2022-11-16T01:31:12.854Z,97760.78
2022-11-16T01:33:39.555Z,97766.78
2022-11-16T01:36:14.541Z,97768.47
2022-11-16T01:38:43.524Z,97763.25
2022-11-16T01:41:14.745Z,97758.19
2022-11-16T01:44:00.101Z,97764.28
2022-11-16T01:46:27.841Z,97767.69
2022-11-16T01:49:04.155Z,97760.78
2022-11-16T01:51:33.054Z,97762.50
2022-11-16T01:54:02.701Z,97759.19
2022-11-16T01:56:32.551Z,97761.69
2022-11-16T01:58:59.350Z,97754.03
2022-11-16T02:01:25.971Z,97750.56
2022-11-16T02:03:52.554Z,97757.41
2022-11-16T02:09:49.564Z,97745.47
2022-11-16T02:20:59.092Z,97743.88
2022-11-16T02:32:12.142Z,97730.13
2022-11-16T02:34:45.222Z,97726.84
2022-11-16T02:37:17.593Z,97727.50
2022-11-16T02:39:47.658Z,97725.88
2022-11-16T02:42:22.153Z,97730.13
2022-11-16T02:44:51.648Z,97729.19
2022-11-16T02:47:23.079Z,97731.81
2022-11-16T02:49:56.333Z,97734.34
2022-11-16T02:52:23.773Z,97736.25
2022-11-16T02:54:50.343Z,97731.19
2022-11-16T02:59:57.484Z,97746.59
2022-11-16T03:02:51.338Z,97749.28
2022-11-16T03:05:32.028Z,97750.06
2022-11-16T03:11:09.259Z,97742.31
2022-11-16T03:13:37.524Z,97747.56
2022-11-16T03:16:11.744Z,97752.78
2022-11-16T03:18:40.689Z,97753.75
2022-11-16T03:24:20.644Z,97736.63
2022-11-16T03:29:32.789Z,97744.34
2022-11-16T03:32:10.692Z,97731.59
2022-11-16T03:34:38.864Z,97727.38
2022-11-16T03:37:06.457Z,97733.31
2022-11-16T03:39:37.788Z,97734.31
2022-11-16T03:42:09.425Z,97731.66
2022-11-16T03:44:37.124Z,97734.22
2022-11-16T03:47:03.693Z,97727.38
2022-11-16T03:49:31.457Z,97729.97
2022-11-16T03:51:58.846Z,97725.75
2022-11-16T03:54:25.456Z,97734.63
2022-11-16T03:56:51.993Z,97731.06
2022-11-16T03:59:18.536Z,97732.81
2022-11-16T04:01:45.178Z,97732.91
2022-11-16T04:04:31.926Z,97727.69
2022-11-16T04:07:18.500Z,97725.19
2022-11-16T04:10:04.975Z,97727.75
2022-11-16T04:12:51.810Z,97729.38
2022-11-16T04:15:38.275Z,97729.38
2022-11-16T04:18:25.015Z,97713.09
2022-11-16T04:21:11.832Z,97712.97
2022-11-16T04:23:58.303Z,97703.63
2022-11-16T04:26:45.136Z,97710.63
2022-11-16T04:29:13.693Z,97715.84
2022-11-16T04:32:00.190Z,97709.94
2022-11-16T04:34:46.693Z,97712.56
2022-11-16T04:37:35.705Z,97720.25
2022-11-16T04:40:02.463Z,97718.53
2022-11-16T04:42:28.998Z,97719.44
2022-11-16T04:45:15.478Z,97724.75
2022-11-16T04:47:42.063Z,97722.97
2022-11-16T04:50:09.221Z,97720.41
2022-11-16T04:52:35.832Z,97718.00
2022-11-16T04:55:02.431Z,97719.06
2022-11-16T04:57:28.964Z,97715.63
2022-11-16T04:59:55.550Z,97712.13
2022-11-16T05:02:22.165Z,97716.53
2022-11-16T05:04:48.885Z,97719.88
2022-11-16T05:07:15.773Z,97723.34
2022-11-16T05:09:44.936Z,97717.44
2022-11-16T05:12:14.883Z,97716.66
2022-11-16T05:14:42.841Z,97730.41
2022-11-16T05:17:09.848Z,97727.78
2022-11-16T05:19:56.376Z,97720.03
2022-11-16T05:22:23.496Z,97714.91
2022-11-16T05:24:50.276Z,97707.19
2022-11-16T05:27:18.160Z,97710.66
2022-11-16T05:29:45.625Z,97701.31
2022-11-16T05:32:13.459Z,97706.47
2022-11-16T05:34:40.202Z,97708.28
2022-11-16T05:37:07.371Z,97704.75
2022-11-16T05:39:33.999Z,97697.09
2022-11-16T05:42:01.005Z,97697.03
2022-11-16T05:44:27.601Z,97691.09
2022-11-16T05:46:55.241Z,97687.56
2022-11-16T05:49:22.309Z,97690.16
2022-11-16T05:51:49.071Z,97690.94
2022-11-16T05:54:21.009Z,97693.53
2022-11-16T05:56:49.335Z,97686.91
2022-11-16T05:59:18.636Z,97688.50
2022-11-16T06:01:45.698Z,97694.47
2022-11-16T06:04:13.025Z,97692.78
2022-11-16T06:06:39.654Z,97702.16
2022-11-16T06:09:06.678Z,97697.94
2022-11-16T06:11:35.930Z,97693.75
2022-11-16T06:14:02.877Z,97704.81
2022-11-16T06:16:29.423Z,97697.94
2022-11-16T06:18:55.958Z,97689.38
2022-11-16T06:21:22.562Z,97681.59
2022-11-16T06:23:49.214Z,97685.91
2022-11-16T06:26:15.806Z,97685.91
2022-11-16T06:28:42.509Z,97685.91
2022-11-16T06:31:09.143Z,97688.41
2022-11-16T06:33:35.839Z,97695.41
2022-11-16T06:36:02.445Z,97699.59
2022-11-16T06:38:29.331Z,97686.03
2022-11-16T06:40:57.978Z,97691.88
2022-11-16T06:43:26.048Z,97693.50
2022-11-16T06:45:55.464Z,97685.78
2022-11-16T06:48:22.723Z,97685.66
2022-11-16T06:50:50.808Z,97688.19
2022-11-16T06:53:18.159Z,97682.19
2022-11-16T06:55:44.755Z,97676.09
2022-11-16T06:58:11.317Z,97681.31
2022-11-16T07:00:38.140Z,97682.06
2022-11-16T07:03:04.976Z,97675.25
2022-11-16T07:05:32.426Z,97677.63
2022-11-16T07:07:59.074Z,97672.41
2022-11-16T07:10:25.944Z,97671.47
2022-11-16T07:12:52.497Z,97667.19
2022-11-16T07:15:19.639Z,97664.47
2022-11-16T07:17:47.011Z,97656.78
2022-11-16T07:20:13.565Z,97664.56
2022-11-16T07:22:40.111Z,97666.19
2022-11-16T07:25:07.357Z,97660.19
2022-11-16T07:27:33.939Z,97668.00
2022-11-16T07:30:02.215Z,97672.19
2022-11-16T07:32:31.070Z,97664.47
2022-11-16T07:34:59.385Z,97676.53
2022-11-16T07:37:26.252Z,97674.88
2022-11-16T07:39:52.846Z,97679.13
2022-11-16T07:42:19.404Z,97667.03
2022-11-16T07:44:45.946Z,97673.88
2022-11-16T07:47:12.535Z,97677.25
2022-11-16T07:49:39.155Z,97683.22
2022-11-16T07:52:09.439Z,97683.97
2022-11-16T07:54:36.747Z,97685.56
2022-11-16T07:57:03.386Z,97693.06
2022-11-16T07:59:29.918Z,97690.38
2022-11-16T08:01:56.711Z,97698.97
2022-11-16T08:04:23.512Z,97702.16
2022-11-16T08:06:51.790Z,97701.09
2022-11-16T08:09:18.580Z,97701.69
2022-11-16T08:11:45.195Z,97699.81
2022-11-16T08:14:12.060Z,97708.19
2022-11-16T08:16:38.779Z,97703.81
2022-11-16T08:19:05.365Z,97708.78
2022-11-16T08:21:31.919Z,97707.88
2022-11-16T08:23:59.112Z,97712.75
2022-11-16T08:26:26.099Z,97723.72
2022-11-16T08:28:53.935Z,97717.63
2022-11-16T08:31:24.216Z,97711.41
2022-11-16T08:33:52.070Z,97714.00
2022-11-16T08:36:19.253Z,97718.13
2022-11-16T08:38:48.481Z,97716.38
2022-11-16T08:41:15.701Z,97712.59
2022-11-16T08:43:42.811Z,97713.09
2022-11-16T08:46:10.513Z,97707.47
2022-11-16T08:48:37.858Z,97697.81
2022-11-16T08:51:22.252Z,97705.41
2022-11-16T08:53:49.794Z,97702.91
2022-11-16T08:56:18.596Z,97702.97
2022-11-16T08:58:47.430Z,97697.88
2022-11-16T09:01:17.221Z,97698.09
2022-11-16T09:03:44.953Z,97699.03
2022-11-16T09:06:12.755Z,97692.75
2022-11-16T09:08:41.944Z,97693.31
2022-11-16T09:11:11.635Z,97689.50
2022-11-16T09:13:38.589Z,97687.06
2022-11-16T09:16:05.594Z,97686.56
2022-11-16T09:18:32.926Z,97684.16
2022-11-16T09:20:59.657Z,97683.69
2022-11-16T09:23:26.342Z,97686.66
2022-11-16T09:25:54.551Z,97686.06
2022-11-16T09:28:22.159Z,97675.19
2022-11-16T09:30:51.016Z,97674.19
2022-11-16T09:33:17.793Z,97674.66
2022-11-16T09:35:44.487Z,97683.00
2022-11-16T09:38:14.865Z,97676.47
2022-11-16T09:40:47.869Z,97677.13
2022-11-16T09:43:44.151Z,97679.78
2022-11-16T09:46:35.817Z,97671.53
2022-11-16T09:49:17.385Z,97672.63
2022-11-16T09:51:49.092Z,97671.41
2022-11-16T09:54:21.289Z,97674.66
2022-11-16T09:56:51.720Z,97672.41
2022-11-16T09:59:24.770Z,97678.66
2022-11-16T10:02:16.511Z,97688.50
2022-11-16T10:05:10.610Z,97684.16
2022-11-16T10:07:44.762Z,97689.72
2022-11-16T10:10:16.980Z,97685.19
2022-11-16T10:21:37.913Z,97697.25
2022-11-16T10:29:50.688Z,97683.78
2022-11-16T10:32:57.070Z,97685.19
2022-11-16T10:38:04.196Z,97690.66
2022-11-16T10:40:38.950Z,97686.28
2022-11-16T10:43:24.603Z,97684.06
2022-11-16T10:46:00.476Z,97673.25
2022-11-16T10:51:24.226Z,97677.31
2022-11-16T10:53:53.055Z,97675.34
2022-11-16T10:56:27.500Z,97665.41
2022-11-16T11:06:59.750Z,97654.00
2022-11-16T11:09:36.851Z,97664.59
2022-11-16T11:12:34.447Z,97667.94
2022-11-16T11:17:47.828Z,97662.13
2022-11-16T11:25:54.105Z,97638.41
2022-11-16T11:33:48.672Z,97649.69
2022-11-16T11:36:20.563Z,97641.66
2022-11-16T11:44:58.786Z,97641.28
2022-11-16T11:55:36.245Z,97646.59
2022-11-16T11:58:04.650Z,97650.97
2022-11-16T12:00:58.150Z,97645.06
2022-11-16T12:06:22.559Z,97638.69
2022-11-16T12:19:49.781Z,97615.00
2022-11-16T12:30:24.166Z,97590.94
2022-11-16T12:33:30.574Z,97586.56
2022-11-16T13:00:14.794Z,97584.75
2022-11-16T13:05:58.416Z,97580.69
2022-11-16T13:08:43.531Z,97575.78
2022-11-16T13:11:19.728Z,97573.88
2022-11-16T13:13:53.635Z,97572.16
2022-11-16T13:16:21.996Z,97549.88
2022-11-16T13:18:48.689Z,97536.28
2022-11-16T13:24:04.735Z,97528.75
2022-11-16T13:26:55.230Z,97532.75
2022-11-16T13:29:48.234Z,97531.78
2022-11-16T13:32:42.784Z,97517.41
2022-11-16T13:35:15.819Z,97508.84
2022-11-16T13:40:25.344Z,97491.03
2022-11-16T13:48:28.355Z,97475.13
2022-11-16T13:50:58.519Z,97474.09
2022-11-16T13:56:16.048Z,97467.59
2022-11-16T13:58:48.056Z,97466.91
2022-11-16T14:01:15.797Z,97471.38
2022-11-16T14:09:00.159Z,97460.06
2022-11-16T14:11:42.943Z,97454.94
2022-11-16T14:14:13.545Z,97453.34
2022-11-16T14:25:06.734Z,97426.81
2022-11-16T14:27:50.597Z,97422.84
2022-11-16T14:30:22.815Z,97417.91
2022-11-16T14:32:52.718Z,97427.47
2022-11-16T14:35:40.002Z,97431.22
2022-11-16T14:38:17.937Z,97424.63
2022-11-16T14:40:47.336Z,97414.72
2022-11-16T14:43:20.598Z,97412.38
2022-11-16T14:45:53.385Z,97404.66
2022-11-16T14:48:22.242Z,97401.84
2022-11-16T14:51:03.633Z,97400.38
2022-11-16T14:53:32.208Z,97396.97
2022-11-16T14:56:10.869Z,97392.63
2022-11-16T14:58:38.363Z,97389.03
2022-11-16T15:01:12.769Z,97391.72
2022-11-16T15:03:48.493Z,97384.84
2022-11-16T15:06:16.202Z,97389.16
2022-11-16T15:08:48.632Z,97384.22
2022-11-16T15:11:47.154Z,97371.44
2022-11-16T15:14:18.745Z,97367.84
2022-11-16T15:16:51.790Z,97373.13
2022-11-16T15:19:19.023Z,97370.25
2022-11-16T15:21:55.820Z,97372.97
2022-11-16T15:24:30.368Z,97379.06
2022-11-16T15:27:09.566Z,97367.22
2022-11-16T15:29:36.788Z,97368.72
2022-11-16T15:32:03.685Z,97370.53
2022-11-16T15:34:31.278Z,97359.16
2022-11-16T15:36:57.817Z,97351.53
2022-11-16T15:39:31.998Z,97350.19
2022-11-16T15:42:03.478Z,97356.25
2022-11-16T15:44:31.076Z,97346.03
2022-11-16T15:46:58.950Z,97346.47
2022-11-16T15:52:02.114Z,97340.69
2022-11-16T15:54:51.083Z,97334.84
2022-11-16T15:57:19.237Z,97331.91
2022-11-16T15:59:51.803Z,97330.09
2022-11-16T16:02:20.525Z,97327.56
2022-11-16T16:04:47.286Z,97322.28
2022-11-16T16:07:36.033Z,97323.38
2022-11-16T16:12:57.359Z,97315.44
2022-11-16T16:18:01.823Z,97292.22
2022-11-16T16:20:31.116Z,97287.06
2022-11-16T16:23:07.739Z,97281.09
2022-11-16T16:25:34.824Z,97277.25
2022-11-16T16:28:01.971Z,97272.72
2022-11-16T16:30:30.053Z,97271.81
2022-11-16T16:32:56.718Z,97266.22
2022-11-16T16:35:25.285Z,97267.75
2022-11-16T16:37:57.543Z,97264.47
2022-11-16T16:40:24.279Z,97258.03
2022-11-16T16:42:51.238Z,97259.06
2022-11-16T16:45:21.597Z,97259.06
2022-11-16T16:47:48.244Z,97257.41
2022-11-16T16:50:14.960Z,97252.16
2022-11-16T16:52:41.509Z,97248.00
2022-11-16T16:55:08.469Z,97242.16
2022-11-16T16:57:35.031Z,97242.34
2022-11-16T17:00:01.710Z,97245.00
2022-11-16T17:02:28.382Z,97239.31
2022-11-16T17:04:55.077Z,97239.91
2022-11-16T17:07:21.659Z,97232.34
2022-11-16T17:09:48.339Z,97236.47
2022-11-16T17:12:14.862Z,97236.09
2022-11-16T17:14:41.401Z,97228.88
2022-11-16T17:17:07.952Z,97228.88
2022-11-16T17:19:34.532Z,97223.69
2022-11-16T17:22:01.076Z,97218.66
2022-11-16T17:24:27.596Z,97217.84
2022-11-16T17:26:54.145Z,97215.94
2022-11-16T17:29:20.671Z,97210.84
2022-11-16T17:31:47.713Z,97205.69
2022-11-16T17:34:14.611Z,97208.19
2022-11-16T17:36:42.206Z,97202.34
2022-11-16T17:39:09.060Z,97202.41
2022-11-16T17:41:35.645Z,97202.19
2022-11-16T17:44:02.436Z,97191.03
2022-11-16T17:46:29.198Z,97192.81
2022-11-16T17:48:56.446Z,97190.97
2022-11-16T17:51:25.054Z,97184.44
2022-11-16T17:53:52.193Z,97189.19
2022-11-16T17:56:21.678Z,97184.19
2022-11-16T17:58:50.333Z,97184.25
2022-11-16T18:01:17.080Z,97175.66
2022-11-16T18:03:43.651Z,97173.84
2022-11-16T18:06:13.630Z,97169.50
2022-11-16T18:08:41.424Z,97169.78
2022-11-16T18:11:10.999Z,97165.69
2022-11-16T18:13:38.418Z,97161.94
2022-11-16T18:16:08.177Z,97155.13
2022-11-16T18:18:35.113Z,97157.84
2022-11-16T18:21:02.301Z,97159.47
2022-11-16T18:23:31.044Z,97156.78
2022-11-16T18:25:57.697Z,97150.88
2022-11-16T18:28:24.277Z,97143.88
2022-11-16T18:30:51.397Z,97141.44
2022-11-16T18:33:18.581Z,97136.28
2022-11-16T18:35:45.116Z,97124.91
2022-11-16T18:38:13.169Z,97118.94
2022-11-16T18:40:40.867Z,97118.94
2022-11-16T18:43:13.090Z,97111.84
2022-11-16T18:45:39.663Z,97104.84
2022-11-16T18:48:06.306Z,97110.88
2022-11-16T18:50:32.950Z,97107.56
2022-11-16T18:52:59.493Z,97091.81
2022-11-16T18:55:26.067Z,97094.25
2022-11-16T18:57:52.579Z,97083.78
2022-11-16T19:00:19.516Z,97083.91
2022-11-16T19:02:46.056Z,97080.41
2022-11-16T19:05:12.702Z,97080.84
2022-11-16T19:07:39.312Z,97081.19
2022-11-16T19:10:07.602Z,97076.91
2022-11-16T19:12:34.135Z,97076.16
2022-11-16T19:15:00.687Z,97068.28
2022-11-16T19:17:27.612Z,97060.59
2022-11-16T19:19:54.264Z,97057.84
2022-11-16T19:22:20.904Z,97056.09
2022-11-16T19:24:47.497Z,97049.28
2022-11-16T19:27:14.061Z,97044.25
2022-11-16T19:29:41.217Z,97045.16
2022-11-16T19:32:07.807Z,97043.25
2022-11-16T19:34:34.332Z,97037.41
2022-11-16T19:37:01.072Z,97038.16
2022-11-16T19:39:27.629Z,97037.56
2022-11-16T19:41:54.167Z,97037.41
2022-11-16T19:44:20.745Z,97021.78
2022-11-16T19:46:47.395Z,97017.56
2022-11-16T19:49:19.987Z,97013.25
2022-11-16T19:51:46.908Z,97007.09
2022-11-16T19:54:14.896Z,97008.53
2022-11-16T19:56:42.807Z,96999.13
2022-11-16T19:59:10.052Z,96983.31
2022-11-16T20:01:36.649Z,96991.84
2022-11-16T20:04:03.702Z,96979.84
2022-11-16T20:09:09.594Z,96974.53
2022-11-16T20:11:37.125Z,96975.78
2022-11-16T20:14:06.010Z,96973.97
2022-11-16T20:16:38.674Z,96969.50
2022-11-16T20:19:08.704Z,96959.16
2022-11-16T20:21:39.760Z,96956.44
2022-11-16T20:24:09.024Z,96953.66
2022-11-16T20:26:37.258Z,96941.59
2022-11-16T20:29:03.938Z,96936.50
2022-11-16T20:31:32.683Z,96926.25
2022-11-16T20:34:01.599Z,96926.00
2022-11-16T20:36:30.098Z,96922.50
2022-11-16T20:38:57.539Z,96919.94
2022-11-16T20:41:26.091Z,96912.19
2022-11-16T20:43:54.471Z,96900.03
2022-11-16T20:46:26.160Z,96895.75
2022-11-16T20:48:52.974Z,96888.31
2022-11-16T20:51:20.621Z,96877.66
2022-11-16T20:53:48.480Z,96873.41
2022-11-16T20:56:16.581Z,96871.66
2022-11-16T20:58:43.432Z,96866.50
2022-11-16T21:01:14.205Z,96864.72
2022-11-16T21:03:42.489Z,96866.44
2022-11-16T21:06:09.017Z,96857.75
2022-11-16T21:08:37.253Z,96854.31
2022-11-16T21:11:14.522Z,96841.31
2022-11-16T21:14:01.293Z,96837.91
2022-11-16T21:16:27.883Z,96830.97
2022-11-16T21:18:55.607Z,96824.88
2022-11-16T21:21:22.265Z,96818.97
2022-11-16T21:23:52.375Z,96822.31
2022-11-16T21:26:21.620Z,96818.81
2022-11-16T21:28:48.229Z,96809.38
2022-11-16T21:31:18.215Z,96801.63
2022-11-16T21:33:45.693Z,96794.94
2022-11-16T21:36:15.121Z,96791.47
2022-11-16T21:38:42.126Z,96782.88
2022-11-16T21:41:10.873Z,96780.28
2022-11-16T21:43:40.292Z,96776.84
2022-11-16T21:46:11.568Z,96768.28
2022-11-16T21:48:38.624Z,96765.78
2022-11-16T21:51:07.267Z,96760.59
2022-11-16T21:53:34.692Z,96757.25
2022-11-16T21:56:02.107Z,96753.94
2022-11-16T21:58:28.838Z,96749.75
2022-11-16T22:00:57.022Z,96744.59
2022-11-16T22:03:25.686Z,96738.50
2022-11-16T22:06:15.024Z,96736.75
2022-11-16T22:08:42.024Z,96733.41
2022-11-16T22:11:09.618Z,96720.81
2022-11-16T22:13:37.376Z,96721.56
2022-11-16T22:16:06.764Z,96730.41
2022-11-16T22:18:33.635Z,96726.97
2022-11-16T22:21:01.084Z,96725.22
2022-11-16T22:23:27.850Z,96734.81
2022-11-16T22:25:54.686Z,96723.88
2022-11-16T22:28:21.704Z,96708.69
2022-11-16T22:30:51.647Z,96699.28
2022-11-16T22:33:18.651Z,96710.03
2022-11-16T22:35:47.012Z,96694.69
2022-11-16T22:38:13.539Z,96696.50
2022-11-16T22:40:40.049Z,96682.59
2022-11-16T22:43:06.577Z,96681.69
2022-11-16T22:45:33.089Z,96679.03
2022-11-16T22:47:59.657Z,96669.66
2022-11-16T22:50:26.216Z,96674.00
2022-11-16T22:52:52.794Z,96669.84
2022-11-16T22:55:19.358Z,96640.91
2022-11-16T22:57:45.903Z,96643.50
2022-11-16T23:00:13.664Z,96642.81
2022-11-16T23:02:40.353Z,96633.34
2022-11-16T23:05:07.228Z,96622.16
2022-11-16T23:07:33.930Z,96625.84
2022-11-16T23:10:00.696Z,96618.00
2022-11-16T23:12:47.160Z,96603.31
2022-11-16T23:15:34.112Z,96614.00
2022-11-16T23:18:00.681Z,96618.16
2022-11-16T23:20:47.166Z,96601.16
2022-11-16T23:23:39.591Z,96601.25
2022-11-16T23:26:34.350Z,96595.16
2022-11-16T23:29:02.829Z,96579.81
2022-11-16T23:31:29.396Z,96575.66
2022-11-16T23:33:55.941Z,96571.50
2022-11-16T23:36:22.477Z,96583.75
2022-11-16T23:38:49.113Z,96561.66
2022-11-16T23:41:35.564Z,96560.59
2022-11-16T23:44:02.204Z,96552.41
2022-11-16T23:46:31.338Z,96544.41
2022-11-16T23:48:58.045Z,96541.00
2022-11-16T23:51:25.372Z,96538.50
2022-11-16T23:53:52.889Z,96529.28
2022-11-16T23:56:21.022Z,96523.19
2022-11-16T23:58:48.253Z,96523.25
